Time,TemperatureF,DewpointF,PressureIn,WindDirection,WindDirectionDegrees,WindSpeedMPH,WindSpeedGustMPH,Humidity,HourlyPrecipIn,Conditions,Clouds,dailyrainin,SoftwareType,DateUTC
2013-05-18 00:01:00,73.2,51.2,29.89,SE,138,0.0,0.0,46,0.00,,,0.00,VWS V14.00,2013-05-18 04:01:00,
2013-05-18 00:02:00,73.2,51.2,29.89,SE,129,0.0,0.0,46,0.00,,,0.00,VWS V14.00,2013-05-18 04:02:00,
2013-05-18 00:07:00,73.0,51.1,29.89,SE,129,0.0,0.0,46,0.00,,,0.00,VWS V14.00,2013-05-18 04:07:00,
2013-05-18 00:08:00,73.0,51.1,29.89,SE,143,0.0,0.0,46,0.00,,,0.00,VWS V14.00,2013-05-18 04:08:00,
2013-05-18 00:13:00,72.9,51.5,29.89,SSE,164,0.0,0.0,47,0.00,,,0.00,VWS V14.00,2013-05-18 04:13:00,
2013-05-18 00:18:00,72.9,52.0,29.89,SSW,195,0.0,0.0,48,0.00,,,0.00,VWS V14.00,2013-05-18 04:18:00,
2013-05-18 00:23:00,72.7,51.9,29.89,SSW,195,0.0,2.2,48,0.00,,,0.00,VWS V14.00,2013-05-18 04:23:00,
2013-05-18 00:28:00,72.5,51.7,29.89,ENE,78,0.0,0.0,48,0.00,,,0.00,VWS V14.00,2013-05-18 04:28:00,
2013-05-18 00:33:00,72.3,52.1,29.89,SSE,158,0.0,2.7,49,0.00,,,0.00,VWS V14.00,2013-05-18 04:33:00,
2013-05-18 00:38:00,72.3,52.1,29.89,SE,135,2.7,2.7,49,0.00,,,0.00,VWS V14.00,2013-05-18 04:38:00,
2013-05-18 00:43:00,72.3,52.1,29.89,SE,132,0.0,0.0,49,0.00,,,0.00,VWS V14.00,2013-05-18 04:43:00,
2013-05-18 00:48:00,72.1,51.9,29.89,South,171,0.0,0.0,49,0.00,,,0.00,VWS V14.00,2013-05-18 04:48:00,
2013-05-18 00:53:00,72.1,51.9,29.89,SE,139,2.7,3.6,49,0.00,,,0.00,VWS V14.00,2013-05-18 04:53:00,
2013-05-18 00:58:00,72.0,51.8,29.89,ESE,116,0.0,0.0,49,0.00,,,0.00,VWS V14.00,2013-05-18 04:58:00,
2013-05-18 01:03:00,72.0,51.8,29.89,ESE,116,0.0,0.0,49,0.00,,,0.00,VWS V14.00,2013-05-18 05:03:00,
2013-05-18 01:08:00,71.8,51.6,29.89,ESE,116,0.0,0.0,49,0.00,,,0.00,VWS V14.00,2013-05-18 05:08:00,
2013-05-18 01:14:00,71.8,51.6,29.89,ESE,116,0.0,0.0,49,0.00,,,0.00,VWS V14.00,2013-05-18 05:14:00,
2013-05-18 01:19:00,71.6,51.5,29.89,ESE,123,2.2,2.2,49,0.00,,,0.00,VWS V14.00,2013-05-18 05:19:00,
2013-05-18 01:24:00,71.6,51.5,29.89,ESE,123,0.0,0.0,49,0.00,,,0.00,VWS V14.00,2013-05-18 05:24:00,
2013-05-18 01:29:00,71.4,51.3,29.89,SSE,147,0.0,4.0,49,0.00,,,0.00,VWS V14.00,2013-05-18 05:29:00,
2013-05-18 01:34:00,71.2,51.1,29.89,SE,144,0.0,0.0,49,0.00,,,0.00,VWS V14.00,2013-05-18 05:34:00,
2013-05-18 01:39:00,71.1,51.5,29.89,ESE,110,0.0,2.7,50,0.00,,,0.00,VWS V14.00,2013-05-18 05:39:00,
2013-05-18 01:44:00,71.1,51.5,29.89,SW,221,0.0,0.0,50,0.00,,,0.00,VWS V14.00,2013-05-18 05:44:00,
2013-05-18 01:49:00,70.9,51.3,29.89,SSW,194,0.0,0.0,50,0.00,,,0.00,VWS V14.00,2013-05-18 05:49:00,
2013-05-18 01:54:00,70.9,50.8,29.89,SSE,153,0.0,0.0,49,0.00,,,0.00,VWS V14.00,2013-05-18 05:54:00,
2013-05-18 01:59:00,70.9,50.8,29.89,SSE,153,0.0,0.0,49,0.00,,,0.00,VWS V14.00,2013-05-18 05:59:00,
2013-05-18 02:04:00,70.7,50.6,29.89,SSE,153,0.0,0.0,49,0.00,,,0.00,VWS V14.00,2013-05-18 06:04:00,
2013-05-18 02:09:00,70.7,51.2,29.89,SSE,157,0.0,0.0,50,0.00,,,0.00,VWS V14.00,2013-05-18 06:09:00,
2013-05-18 02:14:00,70.7,50.6,29.89,SE,126,0.0,2.7,49,0.00,,,0.00,VWS V14.00,2013-05-18 06:14:00,
2013-05-18 02:19:00,70.5,50.5,29.89,SSE,151,0.0,3.6,49,0.00,,,0.00,VWS V14.00,2013-05-18 06:19:00,
2013-05-18 02:24:00,70.5,49.9,29.89,SE,137,0.0,4.0,48,0.00,,,0.00,VWS V14.00,2013-05-18 06:24:00,
2013-05-18 02:29:00,70.5,49.9,29.89,South,183,2.7,4.0,48,0.00,,,0.00,VWS V14.00,2013-05-18 06:29:00,
2013-05-18 02:34:00,70.5,49.3,29.89,South,172,0.0,0.0,47,0.00,,,0.00,VWS V14.00,2013-05-18 06:34:00,
2013-05-18 02:40:00,70.5,49.3,29.89,SE,137,0.0,0.0,47,0.00,,,0.00,VWS V14.00,2013-05-18 06:40:00,
2013-05-18 02:45:00,70.3,49.2,29.89,South,169,0.0,0.0,47,0.00,,,0.00,VWS V14.00,2013-05-18 06:45:00,
2013-05-18 02:50:00,70.3,49.2,29.89,East,79,0.0,0.0,47,0.00,,,0.00,VWS V14.00,2013-05-18 06:50:00,
2013-05-18 02:55:00,70.2,48.4,29.89,SE,140,2.7,4.0,46,0.00,,,0.00,VWS V14.00,2013-05-18 06:55:00,
2013-05-18 03:00:00,70.0,48.8,29.89,South,186,0.0,0.0,47,0.00,,,0.00,VWS V14.00,2013-05-18 07:00:00,
2013-05-18 03:05:00,69.8,48.7,29.89,SSE,157,0.0,4.0,47,0.00,,,0.00,VWS V14.00,2013-05-18 07:05:00,
2013-05-18 03:10:00,69.6,48.5,29.89,SSE,157,0.0,0.0,47,0.00,,,0.00,VWS V14.00,2013-05-18 07:10:00,
2013-05-18 03:15:00,69.4,48.3,29.89,SSE,157,0.0,0.0,47,0.00,,,0.00,VWS V14.00,2013-05-18 07:15:00,
2013-05-18 03:20:00,69.4,48.9,29.89,SE,138,0.0,0.0,48,0.00,,,0.00,VWS V14.00,2013-05-18 07:20:00,
2013-05-18 03:25:00,69.4,48.9,29.89,SE,145,0.0,0.0,48,0.00,,,0.00,VWS V14.00,2013-05-18 07:25:00,
2013-05-18 03:30:00,69.4,48.9,29.89,SSE,163,0.0,0.0,48,0.00,,,0.00,VWS V14.00,2013-05-18 07:30:00,
2013-05-18 03:35:00,69.6,49.1,29.89,SSW,196,4.0,4.9,48,0.00,,,0.00,VWS V14.00,2013-05-18 07:35:00,
2013-05-18 03:40:00,69.6,49.1,29.89,SSW,202,2.2,2.2,48,0.00,,,0.00,VWS V14.00,2013-05-18 07:40:00,
2013-05-18 03:45:00,69.6,49.1,29.89,SE,127,0.0,0.0,48,0.00,,,0.00,VWS V14.00,2013-05-18 07:45:00,
2013-05-18 03:50:00,69.4,48.9,29.89,SE,137,0.0,0.0,48,0.00,,,0.00,VWS V14.00,2013-05-18 07:50:00,
2013-05-18 03:55:00,69.6,49.1,29.89,ESE,123,0.0,2.2,48,0.00,,,0.00,VWS V14.00,2013-05-18 07:55:00,
2013-05-18 04:00:00,69.6,49.6,29.89,SSE,168,2.2,4.0,49,0.00,,,0.00,VWS V14.00,2013-05-18 08:00:00,
2013-05-18 04:05:00,69.4,49.5,29.89,SSE,163,0.0,0.0,49,0.00,,,0.00,VWS V14.00,2013-05-18 08:05:00,
2013-05-18 04:10:00,69.6,49.6,29.89,ESE,119,0.0,0.0,49,0.00,,,0.00,VWS V14.00,2013-05-18 08:10:00,
2013-05-18 04:16:00,69.6,49.6,29.89,SSE,163,0.0,3.1,49,0.00,,,0.00,VWS V14.00,2013-05-18 08:16:00,
2013-05-18 04:21:00,69.4,49.5,29.89,SE,146,0.0,2.7,49,0.00,,,0.00,VWS V14.00,2013-05-18 08:21:00,
2013-05-18 04:26:00,69.4,50.0,29.89,SE,146,0.0,0.0,50,0.00,,,0.00,VWS V14.00,2013-05-18 08:26:00,
2013-05-18 04:31:00,69.4,50.5,29.89,SSE,147,0.0,0.0,51,0.00,,,0.00,VWS V14.00,2013-05-18 08:31:00,
2013-05-18 04:36:00,69.3,50.4,29.89,WSW,238,0.0,0.0,51,0.00,,,0.00,VWS V14.00,2013-05-18 08:36:00,
2013-05-18 04:41:00,69.3,50.4,29.89,SE,137,0.0,3.1,51,0.00,,,0.00,VWS V14.00,2013-05-18 08:41:00,
2013-05-18 04:46:00,69.1,51.2,29.89,SSW,195,0.0,0.0,53,0.00,,,0.00,VWS V14.00,2013-05-18 08:46:00,
2013-05-18 04:51:00,68.9,51.1,29.89,SE,135,0.0,0.0,53,0.00,,,0.00,VWS V14.00,2013-05-18 08:51:00,
2013-05-18 04:56:00,68.7,50.9,29.89,SSW,207,0.0,0.0,53,0.00,,,0.00,VWS V14.00,2013-05-18 08:56:00,
2013-05-18 05:01:00,68.5,51.2,29.89,SE,146,0.0,3.6,54,0.00,,,0.00,VWS V14.00,2013-05-18 09:01:00,
2013-05-18 05:06:00,68.4,52.1,29.89,SE,136,4.9,4.9,56,0.00,,,0.00,VWS V14.00,2013-05-18 09:06:00,
2013-05-18 05:11:00,68.2,51.9,29.89,East,79,0.0,2.2,56,0.00,,,0.00,VWS V14.00,2013-05-18 09:11:00,
2013-05-18 05:16:00,68.0,51.7,29.89,East,79,0.0,0.0,56,0.00,,,0.00,VWS V14.00,2013-05-18 09:16:00,
2013-05-18 05:21:00,68.0,53.6,29.89,ESE,121,0.0,2.2,60,0.00,,,0.00,VWS V14.00,2013-05-18 09:21:00,
2013-05-18 05:26:00,67.8,53.4,29.89,South,182,0.0,0.0,60,0.00,,,0.00,VWS V14.00,2013-05-18 09:26:00,
2013-05-18 05:31:00,67.6,53.3,29.89,South,181,0.0,0.0,60,0.00,,,0.00,VWS V14.00,2013-05-18 09:31:00,
2013-05-18 05:36:00,67.5,53.1,29.89,South,178,0.0,0.0,60,0.00,,,0.00,VWS V14.00,2013-05-18 09:36:00,
2013-05-18 05:41:00,67.5,53.1,29.89,South,178,0.0,0.0,60,0.00,,,0.00,VWS V14.00,2013-05-18 09:41:00,
2013-05-18 05:47:00,67.3,52.9,29.89,South,178,0.0,0.0,60,0.00,,,0.00,VWS V14.00,2013-05-18 09:47:00,
2013-05-18 05:52:00,67.3,52.9,29.89,South,178,0.0,0.0,60,0.00,,,0.00,VWS V14.00,2013-05-18 09:52:00,
2013-05-18 05:57:00,67.3,53.8,29.89,SSE,163,0.0,0.0,62,0.00,,,0.00,VWS V14.00,2013-05-18 09:57:00,
2013-05-18 06:02:00,67.3,53.8,29.89,SSE,163,0.0,0.0,62,0.00,,,0.00,VWS V14.00,2013-05-18 10:02:00,
2013-05-18 06:07:00,67.3,53.8,29.89,SSE,163,0.0,0.0,62,0.00,,,0.00,VWS V14.00,2013-05-18 10:07:00,
2013-05-18 06:12:00,67.5,54.0,29.89,SSE,163,0.0,0.0,62,0.00,,,0.00,VWS V14.00,2013-05-18 10:12:00,
2013-05-18 06:17:00,67.5,54.0,29.89,SSE,162,0.0,0.0,62,0.00,,,0.00,VWS V14.00,2013-05-18 10:17:00,
2013-05-18 06:22:00,67.6,54.6,29.89,South,171,0.0,0.0,63,0.00,,,0.00,VWS V14.00,2013-05-18 10:22:00,
2013-05-18 06:27:00,67.6,55.0,29.89,South,189,2.7,2.7,64,0.00,,,0.00,VWS V14.00,2013-05-18 10:27:00,
2013-05-18 06:32:00,67.6,55.0,29.89,South,183,0.0,0.0,64,0.00,,,0.00,VWS V14.00,2013-05-18 10:32:00,
2013-05-18 06:37:00,67.6,55.0,29.89,East,99,0.0,0.0,64,0.00,,,0.00,VWS V14.00,2013-05-18 10:37:00,
2013-05-18 06:42:00,67.8,55.6,29.89,East,99,0.0,0.0,65,0.00,,,0.00,VWS V14.00,2013-05-18 10:42:00,
2013-05-18 06:47:00,68.0,55.8,29.89,SE,127,0.0,2.2,65,0.00,,,0.00,VWS V14.00,2013-05-18 10:47:00,
2013-05-18 06:52:00,68.0,56.2,29.89,SE,131,3.1,3.1,66,0.00,,,0.00,VWS V14.00,2013-05-18 10:52:00,
2013-05-18 06:57:00,68.2,56.8,29.89,SSW,207,0.0,0.0,67,0.00,,,0.00,VWS V14.00,2013-05-18 10:57:00,
2013-05-18 07:02:00,68.2,56.8,29.89,SE,137,0.0,3.1,67,0.00,,,0.00,VWS V14.00,2013-05-18 11:02:00,
2013-05-18 07:07:00,68.4,57.0,29.89,SW,218,0.0,4.5,67,0.00,,,0.00,VWS V14.00,2013-05-18 11:07:00,
2013-05-18 07:12:00,68.4,57.4,29.89,SSE,165,0.0,0.0,68,0.00,,,0.00,VWS V14.00,2013-05-18 11:12:00,
2013-05-18 07:18:00,68.5,57.6,29.89,SW,215,2.2,3.1,68,0.00,,,0.00,VWS V14.00,2013-05-18 11:18:00,
2013-05-18 07:23:00,68.5,57.6,29.89,WSW,247,2.7,2.7,68,0.00,,,0.00,VWS V14.00,2013-05-18 11:23:00,
2013-05-18 07:28:00,68.5,57.6,29.89,SW,231,0.0,3.6,68,0.00,,,0.00,VWS V14.00,2013-05-18 11:28:00,
2013-05-18 07:33:00,68.7,57.7,29.89,SSW,202,0.0,0.0,68,0.00,,,0.00,VWS V14.00,2013-05-18 11:33:00,
2013-05-18 07:38:00,68.7,57.7,29.89,SW,221,0.0,3.1,68,0.00,,,0.00,VWS V14.00,2013-05-18 11:38:00,
2013-05-18 07:43:00,68.9,57.9,29.89,SW,229,0.0,2.7,68,0.00,,,0.00,VWS V14.00,2013-05-18 11:43:00,
2013-05-18 07:48:00,69.1,58.1,29.89,SSW,202,0.0,0.0,68,0.00,,,0.00,VWS V14.00,2013-05-18 11:48:00,
2013-05-18 07:53:00,69.3,57.8,29.89,SW,229,0.0,0.0,67,0.00,,,0.00,VWS V14.00,2013-05-18 11:53:00,
2013-05-18 07:58:00,69.4,58.0,29.89,SW,229,0.0,0.0,67,0.00,,,0.00,VWS V14.00,2013-05-18 11:58:00,
2013-05-18 08:03:00,69.8,57.9,29.89,SW,229,0.0,0.0,66,0.00,,,0.00,VWS V14.00,2013-05-18 12:03:00,
2013-05-18 08:08:00,69.8,57.5,29.89,SW,235,2.7,2.7,65,0.00,,,0.00,VWS V14.00,2013-05-18 12:08:00,
2013-05-18 08:13:00,70.0,57.7,29.89,SW,222,3.1,3.1,65,0.00,,,0.00,VWS V14.00,2013-05-18 12:13:00,
2013-05-18 08:18:00,70.2,57.9,29.89,SW,223,0.0,3.6,65,0.00,,,0.00,VWS V14.00,2013-05-18 12:18:00,
2013-05-18 08:23:00,70.3,58.0,29.89,SW,233,0.0,3.1,65,0.00,,,0.00,VWS V14.00,2013-05-18 12:23:00,
2013-05-18 08:29:00,70.5,58.2,29.89,SW,223,0.0,0.0,65,0.00,,,0.00,VWS V14.00,2013-05-18 12:29:00,
2013-05-18 08:34:00,70.9,58.1,29.89,SSW,202,0.0,4.0,64,0.00,,,0.00,VWS V14.00,2013-05-18 12:34:00,
2013-05-18 08:39:00,71.1,57.4,29.89,WSW,248,0.0,2.7,62,0.00,,,0.00,VWS V14.00,2013-05-18 12:39:00,
2013-05-18 08:44:00,71.1,57.4,29.89,WSW,247,2.7,5.4,62,0.00,,,0.00,VWS V14.00,2013-05-18 12:44:00,
2013-05-18 08:49:00,71.2,57.1,29.89,WSW,243,0.0,3.6,61,0.00,,,0.00,VWS V14.00,2013-05-18 12:49:00,
2013-05-18 08:54:00,71.2,56.7,29.89,SW,215,0.0,0.0,60,0.00,,,0.00,VWS V14.00,2013-05-18 12:54:00,
2013-05-18 08:59:00,71.8,56.7,29.89,WNW,294,0.0,0.0,59,0.00,,,0.00,VWS V14.00,2013-05-18 12:59:00,
2013-05-18 09:04:00,72.0,55.9,29.89,SW,226,2.7,3.1,57,0.00,,,0.00,VWS V14.00,2013-05-18 13:04:00,
2013-05-18 09:09:00,72.0,55.4,29.89,North,357,3.1,4.0,56,0.00,,,0.00,VWS V14.00,2013-05-18 13:09:00,
2013-05-18 09:14:00,71.4,54.9,29.89,SW,223,0.0,2.7,56,0.00,,,0.00,VWS V14.00,2013-05-18 13:14:00,
2013-05-18 09:19:00,71.4,55.4,29.89,West,264,2.7,2.7,57,0.00,,,0.00,VWS V14.00,2013-05-18 13:19:00,
2013-05-18 09:24:00,71.2,55.7,29.89,SW,229,0.0,0.0,58,0.00,,,0.00,VWS V14.00,2013-05-18 13:24:00,
2013-05-18 09:29:00,71.4,55.9,29.89,SW,229,2.2,2.2,58,0.00,,,0.00,VWS V14.00,2013-05-18 13:29:00,
2013-05-18 09:34:00,71.4,56.4,29.89,NW,317,4.0,4.0,59,0.00,,,0.00,VWS V14.00,2013-05-18 13:34:00,
2013-05-18 09:39:00,71.4,55.9,29.89,North,357,0.0,0.0,58,0.00,,,0.00,VWS V14.00,2013-05-18 13:39:00,
2013-05-18 09:44:00,71.6,55.6,29.89,North,357,0.0,0.0,57,0.00,,,0.00,VWS V14.00,2013-05-18 13:44:00,
2013-05-18 09:49:00,71.6,55.6,29.89,North,357,0.0,0.0,57,0.00,,,0.00,VWS V14.00,2013-05-18 13:49:00,
2013-05-18 09:54:00,71.6,55.1,29.89,North,357,0.0,0.0,56,0.00,,,0.00,VWS V14.00,2013-05-18 13:54:00,
2013-05-18 10:00:00,72.1,56.1,29.89,North,357,0.0,0.0,57,0.00,,,0.00,VWS V14.00,2013-05-18 14:00:00,
2013-05-18 10:05:00,72.9,56.8,29.89,North,357,0.0,0.0,57,0.00,,,0.00,VWS V14.00,2013-05-18 14:05:00,
2013-05-18 10:10:00,73.2,56.1,29.89,North,357,0.0,0.0,55,0.00,,,0.00,VWS V14.00,2013-05-18 14:10:00,
2013-05-18 10:15:00,73.0,54.9,29.89,North,357,0.0,0.0,53,0.00,,,0.00,VWS V14.00,2013-05-18 14:15:00,
2013-05-18 10:20:00,73.2,55.1,29.89,North,357,0.0,0.0,53,0.00,,,0.00,VWS V14.00,2013-05-18 14:20:00,
2013-05-18 10:25:00,73.0,54.4,29.89,North,357,0.0,0.0,52,0.00,,,0.00,VWS V14.00,2013-05-18 14:25:00,
2013-05-18 10:30:00,72.9,54.8,29.89,North,357,0.0,0.0,53,0.00,,,0.00,VWS V14.00,2013-05-18 14:30:00,
2013-05-18 10:35:00,72.9,54.2,29.89,SW,226,0.0,2.7,52,0.00,,,0.00,VWS V14.00,2013-05-18 14:35:00,
2013-05-18 10:40:00,72.5,54.4,29.89,SW,226,0.0,0.0,53,0.00,,,0.00,VWS V14.00,2013-05-18 14:40:00,
2013-05-18 10:45:00,72.3,54.2,29.89,SW,226,0.0,0.0,53,0.00,,,0.00,VWS V14.00,2013-05-18 14:45:00,
2013-05-18 10:50:00,72.3,54.8,29.89,SW,226,0.0,0.0,54,0.00,,,0.00,VWS V14.00,2013-05-18 14:50:00,
2013-05-18 10:55:00,72.5,55.4,29.89,SW,226,0.0,0.0,55,0.00,,,0.00,VWS V14.00,2013-05-18 14:55:00,
2013-05-18 11:00:00,72.7,55.6,29.89,SW,226,0.0,0.0,55,0.00,,,0.00,VWS V14.00,2013-05-18 15:00:00,
2013-05-18 11:05:00,72.9,55.8,29.89,SW,226,0.0,0.0,55,0.00,,,0.00,VWS V14.00,2013-05-18 15:05:00,
2013-05-18 11:10:00,73.4,56.3,29.89,SW,226,0.0,0.0,55,0.00,,,0.00,VWS V14.00,2013-05-18 15:10:00,
2013-05-18 11:15:00,74.1,56.4,29.89,SE,142,0.0,0.0,54,0.00,,,0.00,VWS V14.00,2013-05-18 15:15:00,
2013-05-18 11:21:00,74.8,56.6,29.89,SE,142,0.0,0.0,53,0.00,,,0.00,VWS V14.00,2013-05-18 15:21:00,
2013-05-18 11:26:00,75.6,55.1,29.89,SE,128,0.0,0.0,49,0.00,,,0.00,VWS V14.00,2013-05-18 15:26:00,
2013-05-18 11:31:00,76.3,55.7,29.89,SE,129,0.0,0.0,49,0.00,,,0.00,VWS V14.00,2013-05-18 15:31:00,
2013-05-18 11:36:00,76.1,53.8,29.89,SE,128,0.0,0.0,46,0.00,,,0.00,VWS V14.00,2013-05-18 15:36:00,
2013-05-18 11:41:00,75.9,54.3,29.89,SE,129,0.0,0.0,47,0.00,,,0.00,VWS V14.00,2013-05-18 15:41:00,
2013-05-18 11:46:00,75.6,55.1,29.89,SE,128,0.0,0.0,49,0.00,,,0.00,VWS V14.00,2013-05-18 15:46:00,
2013-05-18 11:51:00,75.0,54.6,29.89,SW,232,0.0,3.6,49,0.00,,,0.00,VWS V14.00,2013-05-18 15:51:00,
2013-05-18 11:56:00,75.2,55.3,29.89,SSW,209,0.0,0.0,50,0.00,,,0.00,VWS V14.00,2013-05-18 15:56:00,
2013-05-18 12:01:00,76.1,55.0,29.89,SSW,213,0.0,0.0,48,0.00,,,0.00,VWS V14.00,2013-05-18 16:01:00,
2013-05-18 12:06:00,76.5,54.2,29.89,WNW,298,0.0,2.7,46,0.00,,,0.00,VWS V14.00,2013-05-18 16:06:00,
2013-05-18 12:11:00,76.8,55.1,29.89,WNW,298,0.0,0.0,47,0.00,,,0.00,VWS V14.00,2013-05-18 16:11:00,
2013-05-18 12:16:00,77.5,53.9,29.89,NW,317,0.0,0.0,44,0.00,,,0.00,VWS V14.00,2013-05-18 16:16:00,
2013-05-18 12:21:00,78.4,54.7,29.89,NW,317,0.0,0.0,44,0.00,,,0.00,VWS V14.00,2013-05-18 16:21:00,
2013-05-18 12:26:00,79.3,54.9,29.89,NNW,328,4.0,4.0,43,0.00,,,0.00,VWS V14.00,2013-05-18 16:26:00,
2013-05-18 12:31:00,79.2,53.5,29.89,North,350,0.0,2.7,41,0.00,,,0.00,VWS V14.00,2013-05-18 16:31:00,
2013-05-18 12:36:00,77.7,53.5,29.89,WNW,284,0.0,3.1,43,0.00,,,0.00,VWS V14.00,2013-05-18 16:36:00,
2013-05-18 12:42:00,78.1,55.0,29.89,North,353,4.0,4.0,45,0.00,,,0.00,VWS V14.00,2013-05-18 16:42:00,
2013-05-18 12:47:00,77.4,53.8,29.89,North,353,2.2,2.7,44,0.00,,,0.00,VWS V14.00,2013-05-18 16:47:00,
2013-05-18 12:52:00,77.4,55.0,29.89,North,353,0.0,0.0,46,0.00,,,0.00,VWS V14.00,2013-05-18 16:52:00,
2013-05-18 12:57:00,77.2,54.8,29.89,SSW,203,2.2,2.7,46,0.00,,,0.00,VWS V14.00,2013-05-18 16:57:00,
2013-05-18 13:02:00,77.2,55.4,29.89,SSW,203,0.0,2.7,47,0.00,,,0.00,VWS V14.00,2013-05-18 17:02:00,
2013-05-18 13:07:00,77.4,55.6,29.89,SSW,203,0.0,0.0,47,0.00,,,0.00,VWS V14.00,2013-05-18 17:07:00,
2013-05-18 13:12:00,77.4,56.2,29.89,SSW,203,0.0,0.0,48,0.00,,,0.00,VWS V14.00,2013-05-18 17:12:00,
2013-05-18 13:17:00,77.4,53.8,29.89,WSW,246,0.0,3.1,44,0.00,,,0.00,VWS V14.00,2013-05-18 17:17:00,
2013-05-18 13:22:00,76.5,53.0,29.89,SSW,213,3.6,5.8,44,0.00,,,0.00,VWS V14.00,2013-05-18 17:22:00,
2013-05-18 13:27:00,76.5,54.8,29.89,SW,216,2.7,4.0,47,0.00,,,0.00,VWS V14.00,2013-05-18 17:27:00,
2013-05-18 13:32:00,77.0,57.5,29.89,SSW,213,0.0,0.0,51,0.00,,,0.00,VWS V14.00,2013-05-18 17:32:00,
2013-05-18 13:37:00,78.1,58.5,29.89,SSW,213,0.0,0.0,51,0.00,,,0.00,VWS V14.00,2013-05-18 17:37:00,
2013-05-18 13:42:00,79.2,56.0,29.89,ESE,113,0.0,0.0,45,0.00,,,0.00,VWS V14.00,2013-05-18 17:42:00,
2013-05-18 13:47:00,79.0,55.2,29.89,South,188,0.0,0.0,44,0.00,,,0.00,VWS V14.00,2013-05-18 17:47:00,
2013-05-18 13:52:00,78.8,53.8,29.89,SW,227,0.0,3.1,42,0.00,,,0.00,VWS V14.00,2013-05-18 17:52:00,
2013-05-18 13:57:00,80.1,54.9,29.89,SW,217,0.0,0.0,42,0.00,,,0.00,VWS V14.00,2013-05-18 17:57:00,
2013-05-18 14:03:00,81.3,54.7,29.89,SW,217,0.0,0.0,40,0.00,,,0.00,VWS V14.00,2013-05-18 18:03:00,
2013-05-18 14:08:00,80.4,49.5,29.89,West,271,0.0,4.0,34,0.00,,,0.00,VWS V14.00,2013-05-18 18:08:00,
2013-05-18 14:13:00,80.6,53.4,29.89,SW,220,0.0,2.2,39,0.00,,,0.00,VWS V14.00,2013-05-18 18:13:00,
2013-05-18 14:18:00,81.3,53.3,29.89,SE,143,2.7,4.9,38,0.00,,,0.00,VWS V14.00,2013-05-18 18:18:00,
2013-05-18 14:23:00,81.3,54.7,29.89,SE,136,3.1,3.1,40,0.00,,,0.00,VWS V14.00,2013-05-18 18:23:00,
2013-05-18 14:28:00,81.9,53.8,29.89,SW,219,3.1,3.1,38,0.00,,,0.00,VWS V14.00,2013-05-18 18:28:00,
2013-05-18 14:33:00,81.5,52.7,29.89,East,87,2.2,3.1,37,0.00,,,0.00,VWS V14.00,2013-05-18 18:33:00,
2013-05-18 14:38:00,80.8,52.8,29.89,SW,235,0.0,0.0,38,0.00,,,0.00,VWS V14.00,2013-05-18 18:38:00,
2013-05-18 14:43:00,81.0,54.4,29.89,South,188,2.2,2.7,40,0.00,,,0.00,VWS V14.00,2013-05-18 18:43:00,
2013-05-18 14:48:00,82.0,52.5,29.89,SW,228,0.0,0.0,36,0.00,,,0.00,VWS V14.00,2013-05-18 18:48:00,
2013-05-18 14:53:00,82.6,54.4,29.89,SE,139,0.0,0.0,38,0.00,,,0.00,VWS V14.00,2013-05-18 18:53:00,
2013-05-18 14:58:00,83.7,52.3,29.89,SW,227,0.0,3.1,34,0.00,,,0.00,VWS V14.00,2013-05-18 18:58:00,
2013-05-18 15:03:00,82.9,52.5,29.89,South,174,0.0,4.0,35,0.00,,,0.00,VWS V14.00,2013-05-18 19:03:00,
2013-05-18 15:08:00,84.0,50.2,29.89,SE,143,0.0,0.0,31,0.00,,,0.00,VWS V14.00,2013-05-18 19:08:00,
2013-05-18 15:13:00,82.6,49.8,29.89,West,265,3.6,4.0,32,0.00,,,0.00,VWS V14.00,2013-05-18 19:13:00,
2013-05-18 15:19:00,83.3,54.3,29.89,SE,142,2.2,3.6,37,0.00,,,0.00,VWS V14.00,2013-05-18 19:19:00,
2013-05-18 15:24:00,84.6,50.6,29.89,SW,224,2.7,4.0,31,0.00,,,0.00,VWS V14.00,2013-05-18 19:24:00,
2013-05-18 15:29:00,82.6,49.8,29.89,SW,231,4.0,5.4,32,0.00,,,0.00,VWS V14.00,2013-05-18 19:29:00,
2013-05-18 15:34:00,82.9,50.1,29.89,SW,235,8.3,8.3,32,0.00,,,0.00,VWS V14.00,2013-05-18 19:34:00,
2013-05-18 15:39:00,83.3,50.4,29.89,South,172,0.0,0.0,32,0.00,,,0.00,VWS V14.00,2013-05-18 19:39:00,
2013-05-18 15:44:00,83.8,50.0,29.89,SW,215,0.0,4.0,31,0.00,,,0.00,VWS V14.00,2013-05-18 19:44:00,
2013-05-18 15:49:00,83.5,50.5,29.89,SW,217,3.6,4.0,32,0.00,,,0.00,VWS V14.00,2013-05-18 19:49:00,
2013-05-18 15:54:00,84.7,49.9,29.89,SE,140,2.7,2.7,30,0.00,,,0.00,VWS V14.00,2013-05-18 19:54:00,
2013-05-18 15:59:00,84.0,51.0,29.89,WSW,241,2.7,6.3,32,0.00,,,0.00,VWS V14.00,2013-05-18 19:59:00,
2013-05-18 16:04:00,84.4,51.3,29.89,SE,139,2.7,3.1,32,0.00,,,0.00,VWS V14.00,2013-05-18 20:04:00,
2013-05-18 16:09:00,86.2,50.2,29.89,SW,230,3.1,4.0,29,0.00,,,0.00,VWS V14.00,2013-05-18 20:09:00,
2013-05-18 16:14:00,86.9,50.8,29.89,North,0,5.8,5.8,29,0.00,,,0.00,VWS V14.00,2013-05-18 20:14:00,
2013-05-18 16:19:00,85.6,48.8,29.89,SW,235,3.6,3.6,28,0.00,,,0.00,VWS V14.00,2013-05-18 20:19:00,
2013-05-18 16:24:00,84.6,48.8,29.89,SW,226,2.7,5.4,29,0.00,,,0.00,VWS V14.00,2013-05-18 20:24:00,
2013-05-18 16:29:00,84.6,49.8,29.89,ESE,105,2.2,3.6,30,0.00,,,0.00,VWS V14.00,2013-05-18 20:29:00,
2013-05-18 16:34:00,86.7,51.6,29.89,South,171,0.0,0.0,30,0.00,,,0.00,VWS V14.00,2013-05-18 20:34:00,
2013-05-18 16:39:00,88.0,50.8,29.89,SE,135,0.0,0.0,28,0.00,,,0.00,VWS V14.00,2013-05-18 20:39:00,
2013-05-18 16:45:00,88.0,45.6,29.89,West,264,0.0,2.7,23,0.00,,,0.00,VWS V14.00,2013-05-18 20:45:00,
2013-05-18 16:50:00,87.1,44.8,29.89,SW,217,0.0,3.1,23,0.00,,,0.00,VWS V14.00,2013-05-18 20:50:00,
2013-05-18 16:55:00,86.5,45.5,29.89,South,169,0.0,0.0,24,0.00,,,0.00,VWS V14.00,2013-05-18 20:55:00,
2013-05-18 17:00:00,85.8,47.0,29.89,NW,315,3.6,3.6,26,0.00,,,0.00,VWS V14.00,2013-05-18 21:00:00,
2013-05-18 17:05:00,85.1,46.4,29.89,NNW,338,0.0,0.0,26,0.00,,,0.00,VWS V14.00,2013-05-18 21:05:00,
2013-05-18 17:10:00,85.3,47.5,29.89,WSW,257,2.7,4.0,27,0.00,,,0.00,VWS V14.00,2013-05-18 21:10:00,
2013-05-18 17:15:00,85.5,46.7,29.89,SW,235,0.0,2.7,26,0.00,,,0.00,VWS V14.00,2013-05-18 21:15:00,
2013-05-18 17:20:00,86.9,48.9,29.89,NW,305,3.1,3.1,27,0.00,,,0.00,VWS V14.00,2013-05-18 21:20:00,
2013-05-18 17:25:00,87.4,44.0,29.89,North,6,0.0,5.4,22,0.00,,,0.00,VWS V14.00,2013-05-18 21:25:00,
2013-05-18 17:30:00,88.2,47.9,29.89,NE,52,2.7,3.1,25,0.00,,,0.00,VWS V14.00,2013-05-18 21:30:00,
2013-05-18 17:35:00,88.5,42.4,29.89,WSW,237,0.0,5.8,20,0.00,,,0.00,VWS V14.00,2013-05-18 21:35:00,
2013-05-18 17:40:00,87.4,41.5,29.89,North,9,2.7,3.1,20,0.00,,,0.00,VWS V14.00,2013-05-18 21:40:00,
2013-05-18 17:45:00,87.8,40.5,29.89,SW,229,3.6,4.9,19,0.00,,,0.00,VWS V14.00,2013-05-18 21:45:00,
2013-05-18 17:50:00,89.1,41.5,29.89,SW,227,5.4,5.8,19,0.00,,,0.00,VWS V14.00,2013-05-18 21:50:00,
2013-05-18 17:55:00,89.1,41.5,29.89,WSW,255,3.1,4.0,19,0.00,,,0.00,VWS V14.00,2013-05-18 21:55:00,
2013-05-18 18:00:00,88.0,40.6,29.89,South,181,2.7,3.6,19,0.00,,,0.00,VWS V14.00,2013-05-18 22:00:00,
2013-05-18 18:06:00,88.7,41.2,29.89,West,265,0.0,3.6,19,0.00,,,0.00,VWS V14.00,2013-05-18 22:06:00,
2013-05-18 18:11:00,88.2,40.8,29.89,SW,221,2.2,6.3,19,0.00,,,0.00,VWS V14.00,2013-05-18 22:11:00,
2013-05-18 18:16:00,87.8,41.8,29.89,SSW,201,3.1,4.0,20,0.00,,,0.00,VWS V14.00,2013-05-18 22:16:00,
2013-05-18 18:21:00,87.3,42.6,29.89,WNW,287,0.0,3.1,21,0.00,,,0.00,VWS V14.00,2013-05-18 22:21:00,
2013-05-18 18:26:00,86.7,42.2,29.89,SE,145,0.0,5.4,21,0.00,,,0.00,VWS V14.00,2013-05-18 22:26:00,
2013-05-18 18:31:00,85.6,42.5,29.89,WSW,242,0.0,0.0,22,0.00,,,0.00,VWS V14.00,2013-05-18 22:31:00,
2013-05-18 18:36:00,84.2,43.5,29.89,WSW,242,4.0,4.0,24,0.00,,,0.00,VWS V14.00,2013-05-18 22:36:00,
2013-05-18 18:41:00,83.1,44.7,29.89,WSW,239,2.7,4.0,26,0.00,,,0.00,VWS V14.00,2013-05-18 22:41:00,
2013-05-18 18:46:00,82.4,47.0,29.89,WSW,241,3.6,3.6,29,0.00,,,0.00,VWS V14.00,2013-05-18 22:46:00,
2013-05-18 18:51:00,81.9,47.4,29.89,SSW,212,0.0,0.0,30,0.00,,,0.00,VWS V14.00,2013-05-18 22:51:00,
2013-05-18 18:56:00,80.8,46.5,29.89,SW,217,3.6,4.0,30,0.00,,,0.00,VWS V14.00,2013-05-18 22:56:00,
2013-05-18 19:01:00,80.4,47.0,29.89,SW,219,0.0,0.0,31,0.00,,,0.00,VWS V14.00,2013-05-18 23:01:00,
2013-05-18 19:06:00,80.1,47.6,29.89,SW,227,0.0,0.0,32,0.00,,,0.00,VWS V14.00,2013-05-18 23:06:00,
2013-05-18 19:11:00,79.9,47.4,29.89,SW,231,0.0,0.0,32,0.00,,,0.00,VWS V14.00,2013-05-18 23:11:00,
2013-05-18 19:16:00,80.1,47.6,29.89,SW,231,0.0,0.0,32,0.00,,,0.00,VWS V14.00,2013-05-18 23:16:00,
2013-05-18 19:21:00,79.9,47.4,29.89,WSW,248,0.0,3.1,32,0.00,,,0.00,VWS V14.00,2013-05-18 23:21:00,
2013-05-18 19:26:00,79.3,47.8,29.89,West,261,5.8,5.8,33,0.00,,,0.00,VWS V14.00,2013-05-18 23:26:00,
2013-05-18 19:31:00,79.2,48.4,29.89,West,272,0.0,0.0,34,0.00,,,0.00,VWS V14.00,2013-05-18 23:31:00,
2013-05-18 19:37:00,79.2,48.4,29.89,West,272,0.0,2.7,34,0.00,,,0.00,VWS V14.00,2013-05-18 23:37:00,
2013-05-18 19:42:00,78.8,48.1,29.89,West,272,0.0,0.0,34,0.00,,,0.00,VWS V14.00,2013-05-18 23:42:00,
2013-05-18 19:47:00,78.4,48.5,29.89,WSW,255,6.3,6.3,35,0.00,,,0.00,VWS V14.00,2013-05-18 23:47:00,
2013-05-18 19:52:00,78.1,48.2,29.89,SW,229,0.0,4.0,35,0.00,,,0.00,VWS V14.00,2013-05-18 23:52:00,
2013-05-18 19:57:00,77.7,48.7,29.89,SW,229,0.0,0.0,36,0.00,,,0.00,VWS V14.00,2013-05-18 23:57:00,
2013-05-18 20:02:00,77.5,48.5,29.89,SW,220,0.0,2.7,36,0.00,,,0.00,VWS V14.00,2013-05-19 00:02:00,
2013-05-18 20:07:00,77.5,49.2,29.89,SW,220,0.0,0.0,37,0.00,,,0.00,VWS V14.00,2013-05-19 00:07:00,
2013-05-18 20:12:00,77.2,49.6,29.89,SW,220,0.0,0.0,38,0.00,,,0.00,VWS V14.00,2013-05-19 00:12:00,
2013-05-18 20:17:00,77.0,49.5,29.89,SW,220,0.0,0.0,38,0.00,,,0.00,VWS V14.00,2013-05-19 00:17:00,
2013-05-18 20:22:00,76.8,50.0,29.89,SW,229,0.0,0.0,39,0.00,,,0.00,VWS V14.00,2013-05-19 00:22:00,
2013-05-18 20:27:00,76.5,49.7,29.89,SW,224,0.0,0.0,39,0.00,,,0.00,VWS V14.00,2013-05-19 00:27:00,
2013-05-18 20:32:00,76.5,50.4,29.89,SW,224,0.0,0.0,40,0.00,,,0.00,VWS V14.00,2013-05-19 00:32:00,
2013-05-18 20:37:00,76.3,49.5,29.89,SW,224,0.0,0.0,39,0.00,,,0.00,VWS V14.00,2013-05-19 00:37:00,
2013-05-18 20:42:00,76.3,49.5,29.89,SW,224,0.0,0.0,39,0.00,,,0.00,VWS V14.00,2013-05-19 00:42:00,
2013-05-18 20:47:00,76.3,49.5,29.89,SW,224,0.0,0.0,39,0.00,,,0.00,VWS V14.00,2013-05-19 00:47:00,
2013-05-18 20:52:00,76.3,49.5,29.89,SW,224,0.0,0.0,39,0.00,,,0.00,VWS V14.00,2013-05-19 00:52:00,
2013-05-18 20:57:00,76.3,49.5,29.89,SW,224,0.0,0.0,39,0.00,,,0.00,VWS V14.00,2013-05-19 00:57:00,
2013-05-18 21:02:00,76.1,50.0,29.89,SW,224,0.0,0.0,40,0.00,,,0.00,VWS V14.00,2013-05-19 01:02:00,
2013-05-18 21:08:00,76.1,50.0,29.89,SW,224,0.0,0.0,40,0.00,,,0.00,VWS V14.00,2013-05-19 01:08:00,
2013-05-18 21:13:00,75.9,50.5,29.89,SW,224,0.0,0.0,41,0.00,,,0.00,VWS V14.00,2013-05-19 01:13:00,
2013-05-18 21:18:00,75.9,50.5,29.89,SW,224,0.0,0.0,41,0.00,,,0.00,VWS V14.00,2013-05-19 01:18:00,
2013-05-18 21:23:00,75.7,50.4,29.89,SW,224,0.0,0.0,41,0.00,,,0.00,VWS V14.00,2013-05-19 01:23:00,
2013-05-18 21:28:00,75.4,50.7,29.89,SW,224,0.0,0.0,42,0.00,,,0.00,VWS V14.00,2013-05-19 01:28:00,
2013-05-18 21:33:00,75.4,50.7,29.89,SW,224,0.0,0.0,42,0.00,,,0.00,VWS V14.00,2013-05-19 01:33:00,
2013-05-18 21:38:00,75.2,51.2,29.89,SW,224,0.0,0.0,43,0.00,,,0.00,VWS V14.00,2013-05-19 01:38:00,
2013-05-18 21:43:00,75.2,51.8,29.89,SW,224,0.0,0.0,44,0.00,,,0.00,VWS V14.00,2013-05-19 01:43:00,
2013-05-18 21:48:00,75.0,52.9,29.89,SSW,198,0.0,0.0,46,0.00,,,0.00,VWS V14.00,2013-05-19 01:48:00,
2013-05-18 21:53:00,75.0,52.9,29.89,ESE,121,0.0,0.0,46,0.00,,,0.00,VWS V14.00,2013-05-19 01:53:00,
2013-05-18 21:58:00,74.8,53.8,29.89,ESE,121,0.0,0.0,48,0.00,,,0.00,VWS V14.00,2013-05-19 01:58:00,
2013-05-18 22:03:00,74.8,55.0,29.89,South,169,0.0,4.0,50,0.00,,,0.00,VWS V14.00,2013-05-19 02:03:00,
2013-05-18 22:08:00,74.8,55.0,29.89,East,95,0.0,2.2,50,0.00,,,0.00,VWS V14.00,2013-05-19 02:08:00,
2013-05-18 22:13:00,74.5,55.2,29.89,ESE,105,0.0,0.0,51,0.00,,,0.00,VWS V14.00,2013-05-19 02:13:00,
2013-05-18 22:18:00,74.1,56.4,29.89,ESE,104,0.0,0.0,54,0.00,,,0.00,VWS V14.00,2013-05-19 02:18:00,
2013-05-18 22:23:00,73.6,56.4,29.89,ESE,104,0.0,0.0,55,0.00,,,0.00,VWS V14.00,2013-05-19 02:23:00,
2013-05-18 22:28:00,73.2,59.4,29.89,South,177,0.0,0.0,62,0.00,,,0.00,VWS V14.00,2013-05-19 02:28:00,
2013-05-18 22:33:00,72.9,59.1,29.89,South,177,0.0,0.0,62,0.00,,,0.00,VWS V14.00,2013-05-19 02:33:00,
2013-05-18 22:39:00,72.7,59.8,29.89,SSW,196,0.0,0.0,64,0.00,,,0.00,VWS V14.00,2013-05-19 02:39:00,
2013-05-18 22:44:00,72.7,59.8,29.89,SSW,196,0.0,0.0,64,0.00,,,0.00,VWS V14.00,2013-05-19 02:44:00,
2013-05-18 22:49:00,72.7,59.8,29.89,South,176,0.0,0.0,64,0.00,,,0.00,VWS V14.00,2013-05-19 02:49:00,
2013-05-18 22:54:00,72.5,59.6,29.89,South,176,0.0,0.0,64,0.00,,,0.00,VWS V14.00,2013-05-19 02:54:00,
2013-05-18 22:59:00,72.3,59.9,29.89,SE,140,0.0,0.0,65,0.00,,,0.00,VWS V14.00,2013-05-19 02:59:00,
2013-05-18 23:04:00,72.1,60.2,29.89,SSE,158,0.0,0.0,66,0.00,,,0.00,VWS V14.00,2013-05-19 03:04:00,
2013-05-18 23:09:00,72.1,60.2,29.89,SSE,157,0.0,0.0,66,0.00,,,0.00,VWS V14.00,2013-05-19 03:09:00,
2013-05-18 23:14:00,72.1,60.6,29.89,SSE,157,0.0,0.0,67,0.00,,,0.00,VWS V14.00,2013-05-19 03:14:00,
2013-05-18 23:19:00,72.1,60.6,29.89,SE,143,0.0,2.2,67,0.00,,,0.00,VWS V14.00,2013-05-19 03:19:00,
2013-05-18 23:24:00,72.1,60.6,29.89,SE,143,0.0,0.0,67,0.00,,,0.00,VWS V14.00,2013-05-19 03:24:00,
2013-05-18 23:29:00,72.1,61.0,29.89,SSW,211,0.0,2.7,68,0.00,,,0.00,VWS V14.00,2013-05-19 03:29:00,
2013-05-18 23:34:00,72.1,61.0,29.89,SSW,211,0.0,0.0,68,0.00,,,0.00,VWS V14.00,2013-05-19 03:34:00,
2013-05-18 23:40:00,72.0,60.8,29.89,SSE,155,0.0,0.0,68,0.00,,,0.00,VWS V14.00,2013-05-19 03:40:00,
2013-05-18 23:45:00,72.0,60.8,29.89,SSE,155,0.0,0.0,68,0.00,,,0.00,VWS V14.00,2013-05-19 03:45:00,
2013-05-18 23:50:00,72.0,60.8,29.89,SE,132,0.0,0.0,68,0.00,,,0.00,VWS V14.00,2013-05-19 03:50:00,
2013-05-18 23:55:00,71.8,60.7,29.89,SE,137,0.0,2.2,68,0.00,,,0.00,VWS V14.00,2013-05-19 03:55:00,